createdAt,value
2018-06-14T00:00:39.096Z,1019.55
2018-06-14T00:01:39.077Z,1019.5
2018-06-14T00:02:39.089Z,1019.5
2018-06-14T00:03:39.104Z,1019.49
2018-06-14T00:04:39.135Z,1019.47
2018-06-14T00:05:39.102Z,1019.45
2018-06-14T00:06:39.088Z,1019.46
2018-06-14T00:07:39.098Z,1019.45
2018-06-14T00:08:39.100Z,1019.48
2018-06-14T00:09:39.103Z,1019.45
2018-06-14T00:10:39.087Z,1019.45
2018-06-14T00:11:39.082Z,1019.45
2018-06-14T00:12:39.142Z,1019.45
2018-06-14T00:13:39.088Z,1019.4
2018-06-14T00:14:39.126Z,1019.42
2018-06-14T00:15:39.108Z,1019.42
2018-06-14T00:16:39.132Z,1019.42
2018-06-14T00:17:39.236Z,1019.41
2018-06-14T00:18:39.117Z,1019.46
2018-06-14T00:19:39.096Z,1019.45
2018-06-14T00:20:39.096Z,1019.44
2018-06-14T00:21:39.126Z,1019.38
2018-06-14T00:22:39.320Z,1019.39
2018-06-14T00:23:39.255Z,1019.37
2018-06-14T00:24:39.106Z,1019.31
2018-06-14T00:25:39.093Z,1019.33
2018-06-14T00:26:39.112Z,1019.28
2018-06-14T00:27:39.116Z,1019.27
2018-06-14T00:28:39.117Z,1019.22
2018-06-14T00:29:39.123Z,1019.22
2018-06-14T00:30:39.170Z,1019.24
2018-06-14T00:31:39.179Z,1019.22
2018-06-14T00:32:39.108Z,1019.19
2018-06-14T00:33:39.194Z,1019.25
2018-06-14T00:34:39.119Z,1019.22
2018-06-14T00:35:39.113Z,1019.24
2018-06-14T00:36:39.209Z,1019.24
2018-06-14T00:37:39.134Z,1019.24
2018-06-14T00:38:39.127Z,1019.22
2018-06-14T00:39:39.325Z,1019.24
2018-06-14T00:40:39.117Z,1019.24
2018-06-14T00:41:39.108Z,1019.26
2018-06-14T00:42:39.096Z,1019.27
2018-06-14T00:43:39.106Z,1019.25
2018-06-14T00:44:39.332Z,1019.26
2018-06-14T00:45:39.121Z,1019.26
2018-06-14T00:46:39.094Z,1019.31
2018-06-14T00:47:39.110Z,1019.27
2018-06-14T00:48:39.101Z,1019.26
2018-06-14T00:49:39.457Z,1019.29
2018-06-14T00:50:39.112Z,1019.27
2018-06-14T00:51:39.117Z,1019.28
2018-06-14T00:52:39.130Z,1019.26
2018-06-14T00:53:39.172Z,1019.28
2018-06-14T00:54:39.130Z,1019.26
2018-06-14T00:55:39.120Z,1019.29
2018-06-14T00:56:39.106Z,1019.27
2018-06-14T00:57:39.164Z,1019.27
2018-06-14T00:58:39.104Z,1019.25
2018-06-14T00:59:39.114Z,1019.22
2018-06-14T01:00:39.134Z,1019.22
2018-06-14T01:01:39.109Z,1019.21
2018-06-14T01:02:39.128Z,1019.21
2018-06-14T01:03:39.107Z,1019.22
2018-06-14T01:04:39.126Z,1019.18
2018-06-14T01:05:39.125Z,1019.21
2018-06-14T01:06:39.124Z,1019.24
2018-06-14T01:07:39.137Z,1019.15
2018-06-14T01:08:39.124Z,1019.16
2018-06-14T01:09:39.143Z,1019.16
2018-06-14T01:10:39.334Z,1019.15
2018-06-14T01:11:39.142Z,1019.13
2018-06-14T01:12:39.135Z,1019.15
2018-06-14T01:13:39.111Z,1019.15
2018-06-14T01:14:39.152Z,1019.13
2018-06-14T01:15:39.161Z,1019.17
2018-06-14T01:16:39.112Z,1019.18
2018-06-14T01:17:39.118Z,1019.2
2018-06-14T01:18:39.122Z,1019.16
2018-06-14T01:19:39.133Z,1019.21
2018-06-14T01:20:39.127Z,1019.13
2018-06-14T01:21:39.127Z,1019.16
2018-06-14T01:22:39.126Z,1019.21
2018-06-14T01:23:39.117Z,1019.19
2018-06-14T01:24:39.244Z,1019.26
2018-06-14T01:25:39.389Z,1019.2
2018-06-14T01:26:39.132Z,1019.18
2018-06-14T01:27:39.156Z,1019.17
2018-06-14T01:28:39.115Z,1019.18
2018-06-14T01:29:39.121Z,1019.16
2018-06-14T01:30:39.139Z,1019.16
2018-06-14T01:31:39.166Z,1019.17
2018-06-14T01:32:39.132Z,1019.22
2018-06-14T01:33:39.143Z,1019.22
2018-06-14T01:34:39.191Z,1019.19
2018-06-14T01:35:39.165Z,1019.18
2018-06-14T01:36:39.185Z,1019.17
2018-06-14T01:37:39.170Z,1019.13
2018-06-14T01:38:39.136Z,1019.19
2018-06-14T01:39:39.141Z,1019.17
2018-06-14T01:40:39.341Z,1019.18
2018-06-14T01:41:39.343Z,1019.18
2018-06-14T01:42:39.155Z,1019.18
2018-06-14T01:43:39.161Z,1019.17
2018-06-14T01:44:39.136Z,1019.19
2018-06-14T01:45:39.152Z,1019.22
2018-06-14T01:46:39.123Z,1019.2
2018-06-14T01:47:39.134Z,1019.19
2018-06-14T01:48:39.212Z,1019.19
2018-06-14T01:49:39.193Z,1019.2
2018-06-14T01:50:39.161Z,1019.19
2018-06-14T01:51:39.179Z,1019.18
2018-06-14T01:52:39.141Z,1019.18
2018-06-14T01:53:39.156Z,1019.15
2018-06-14T01:54:39.168Z,1019.15
2018-06-14T01:55:39.170Z,1019.09
2018-06-14T01:56:39.152Z,1019.1
2018-06-14T01:57:39.156Z,1019.05
2018-06-14T01:58:39.166Z,1019.04
2018-06-14T01:59:39.158Z,1019.04
2018-06-14T02:00:39.151Z,1019.04
2018-06-14T02:01:39.137Z,1019.02
2018-06-14T02:02:39.198Z,1019.09
2018-06-14T02:03:39.194Z,1019.06
2018-06-14T02:04:39.269Z,1019.11
2018-06-14T02:05:39.303Z,1019.13
2018-06-14T02:06:39.150Z,1019.14
2018-06-14T02:07:39.221Z,1019.14
2018-06-14T02:08:39.151Z,1019.12
2018-06-14T02:09:39.199Z,1019.1
2018-06-14T02:10:39.167Z,1019.09
2018-06-14T02:11:39.213Z,1019.06
2018-06-14T02:12:39.183Z,1019.04
2018-06-14T02:13:39.181Z,1019.05
2018-06-14T02:14:39.167Z,1019.03
2018-06-14T02:15:39.230Z,1019.05
2018-06-14T02:16:39.227Z,1019.06
2018-06-14T02:17:39.205Z,1019.05
2018-06-14T02:18:39.148Z,1019.06
2018-06-14T02:19:39.165Z,1019.05
2018-06-14T02:20:39.161Z,1019.03
2018-06-14T02:21:39.169Z,1019.05
2018-06-14T02:22:39.171Z,1019.03
2018-06-14T02:23:39.159Z,1019.02
2018-06-14T02:24:39.160Z,1019
2018-06-14T02:25:39.190Z,1019.06
2018-06-14T02:26:39.155Z,1019
2018-06-14T02:27:39.175Z,1019.05
2018-06-14T02:28:39.184Z,1019
2018-06-14T02:29:39.173Z,1019.03
2018-06-14T02:30:39.173Z,1019.06
2018-06-14T02:31:39.176Z,1019.03
2018-06-14T02:32:39.195Z,1019.05
2018-06-14T02:33:39.162Z,1019.05
2018-06-14T02:34:39.160Z,1019.08
2018-06-14T02:35:39.162Z,1019.06
2018-06-14T02:36:39.166Z,1019.1
2018-06-14T02:37:39.228Z,1019.17
2018-06-14T02:38:39.213Z,1019.14
2018-06-14T02:39:39.181Z,1019.15
2018-06-14T02:40:39.174Z,1019.18
2018-06-14T02:41:39.193Z,1019.16
2018-06-14T02:42:39.215Z,1019.15
2018-06-14T02:43:39.167Z,1019.18
2018-06-14T02:44:39.178Z,1019.14
2018-06-14T02:45:39.332Z,1019.17
2018-06-14T02:46:39.200Z,1019.17
2018-06-14T02:47:39.181Z,1019.16
2018-06-14T02:48:39.178Z,1019.13
2018-06-14T02:49:39.169Z,1019.13
2018-06-14T02:50:39.161Z,1019.14
2018-06-14T02:51:39.207Z,1019.15
2018-06-14T02:52:39.280Z,1019.15
2018-06-14T02:53:39.219Z,1019.16
2018-06-14T02:54:39.337Z,1019.15
2018-06-14T02:55:39.196Z,1019.21
2018-06-14T02:56:39.222Z,1019.15
2018-06-14T02:57:39.205Z,1019.17
2018-06-14T02:58:39.218Z,1019.14
2018-06-14T02:59:39.334Z,1019.15
2018-06-14T03:00:39.253Z,1019.14
2018-06-14T03:01:39.194Z,1019.14
2018-06-14T03:02:39.192Z,1019.14
2018-06-14T03:03:39.207Z,1019.14
2018-06-14T03:04:39.214Z,1019.1
2018-06-14T03:05:39.248Z,1019.09
2018-06-14T03:06:39.182Z,1019.08
2018-06-14T03:07:39.234Z,1019.1
2018-06-14T03:08:39.291Z,1019.1
2018-06-14T03:09:39.182Z,1019.05
2018-06-14T03:10:39.236Z,1019.09
2018-06-14T03:11:39.192Z,1019.12
2018-06-14T03:12:39.213Z,1019.09
2018-06-14T03:13:39.240Z,1019.14
2018-06-14T03:14:39.183Z,1019.15
2018-06-14T03:15:39.277Z,1019.16
2018-06-14T03:16:39.382Z,1019.15
2018-06-14T03:17:39.251Z,1019.15
2018-06-14T03:18:39.211Z,1019.14
2018-06-14T03:19:39.424Z,1019.15
2018-06-14T03:20:39.187Z,1019.14
2018-06-14T03:21:39.363Z,1019.17
2018-06-14T03:22:39.300Z,1019.19
2018-06-14T03:23:39.189Z,1019.16
2018-06-14T03:24:39.299Z,1019.21
2018-06-14T03:25:39.213Z,1019.18
2018-06-14T03:26:39.180Z,1019.17
2018-06-14T03:27:39.201Z,1019.18
2018-06-14T03:28:39.192Z,1019.2
2018-06-14T03:29:39.219Z,1019.2
2018-06-14T03:30:39.190Z,1019.22
2018-06-14T03:31:39.191Z,1019.17
2018-06-14T03:32:39.204Z,1019.21
2018-06-14T03:33:39.198Z,1019.2
2018-06-14T03:34:39.219Z,1019.23
2018-06-14T03:35:39.210Z,1019.23
2018-06-14T03:36:39.242Z,1019.25
2018-06-14T03:37:39.226Z,1019.25
2018-06-14T03:38:39.205Z,1019.24
2018-06-14T03:39:39.224Z,1019.27
2018-06-14T03:40:39.262Z,1019.25
2018-06-14T03:41:39.204Z,1019.27
2018-06-14T03:42:39.211Z,1019.31
2018-06-14T03:43:39.220Z,1019.32
2018-06-14T03:44:39.195Z,1019.32
2018-06-14T03:45:39.231Z,1019.31
2018-06-14T03:46:39.203Z,1019.28
2018-06-14T03:47:39.234Z,1019.3
2018-06-14T03:48:39.264Z,1019.29
2018-06-14T03:49:39.225Z,1019.3
2018-06-14T03:50:39.229Z,1019.3
2018-06-14T03:51:39.356Z,1019.32
2018-06-14T03:52:39.254Z,1019.3
2018-06-14T03:53:39.190Z,1019.31
2018-06-14T03:54:39.295Z,1019.3
2018-06-14T03:55:39.232Z,1019.29
2018-06-14T03:56:39.254Z,1019.27
2018-06-14T03:57:39.247Z,1019.28
2018-06-14T03:58:39.208Z,1019.29
2018-06-14T03:59:39.271Z,1019.29
2018-06-14T04:00:39.374Z,1019.28
2018-06-14T04:01:39.518Z,1019.26
2018-06-14T04:02:39.279Z,1019.27
2018-06-14T04:03:39.319Z,1019.25
2018-06-14T04:04:39.217Z,1019.24
2018-06-14T04:05:39.273Z,1019.24
2018-06-14T04:06:39.262Z,1019.27
2018-06-14T04:07:39.226Z,1019.29
2018-06-14T04:08:39.296Z,1019.27
2018-06-14T04:09:39.491Z,1019.29
2018-06-14T04:10:44.422Z,1019.32
2018-06-14T04:11:39.267Z,1019.3
2018-06-14T04:12:39.204Z,1019.31
2018-06-14T04:13:39.239Z,1019.31
2018-06-14T04:14:39.366Z,1019.29
2018-06-14T04:15:39.222Z,1019.3
2018-06-14T04:16:39.230Z,1019.31
2018-06-14T04:17:39.249Z,1019.36
2018-06-14T04:18:39.367Z,1019.35
2018-06-14T04:19:39.250Z,1019.38
2018-06-14T04:20:39.239Z,1019.34
2018-06-14T04:21:39.237Z,1019.37
2018-06-14T04:22:39.225Z,1019.34
2018-06-14T04:23:39.221Z,1019.37
2018-06-14T04:24:39.242Z,1019.35
2018-06-14T04:25:39.267Z,1019.38
2018-06-14T04:26:39.280Z,1019.33
2018-06-14T04:27:39.276Z,1019.32
2018-06-14T04:28:39.229Z,1019.33
2018-06-14T04:29:39.228Z,1019.31
2018-06-14T04:30:39.254Z,1019.29
2018-06-14T04:31:39.230Z,1019.28
2018-06-14T04:32:39.226Z,1019.3
2018-06-14T04:33:39.243Z,1019.27
2018-06-14T04:34:39.249Z,1019.29
2018-06-14T04:35:39.258Z,1019.25
2018-06-14T04:36:39.530Z,1019.25
2018-06-14T04:37:39.269Z,1019.27
2018-06-14T04:38:39.228Z,1019.27
2018-06-14T04:39:39.250Z,1019.27
2018-06-14T04:40:39.233Z,1019.3
2018-06-14T04:41:39.253Z,1019.33
2018-06-14T04:42:39.247Z,1019.32
2018-06-14T04:43:39.244Z,1019.31
2018-06-14T04:44:39.349Z,1019.29
2018-06-14T04:45:39.236Z,1019.25
2018-06-14T04:46:39.230Z,1019.28
2018-06-14T04:47:39.241Z,1019.22
2018-06-14T04:48:39.248Z,1019.21
2018-06-14T04:49:39.257Z,1019.25
2018-06-14T04:50:39.238Z,1019.27
2018-06-14T04:51:39.265Z,1019.26
2018-06-14T04:52:39.232Z,1019.25
2018-06-14T04:53:39.255Z,1019.27
2018-06-14T04:54:39.439Z,1019.24
2018-06-14T04:55:39.292Z,1019.24
2018-06-14T04:56:39.259Z,1019.27
2018-06-14T04:57:39.289Z,1019.27
2018-06-14T04:58:39.254Z,1019.26
2018-06-14T04:59:39.273Z,1019.29
2018-06-14T05:00:39.276Z,1019.28
2018-06-14T05:01:39.244Z,1019.29
2018-06-14T05:02:39.293Z,1019.24
2018-06-14T05:03:39.267Z,1019.27
2018-06-14T05:04:39.300Z,1019.24
2018-06-14T05:05:39.245Z,1019.28
2018-06-14T05:06:39.237Z,1019.26
2018-06-14T05:07:39.248Z,1019.23
2018-06-14T05:08:39.269Z,1019.25
2018-06-14T05:09:39.251Z,1019.24
2018-06-14T05:10:39.326Z,1019.25
2018-06-14T05:11:39.291Z,1019.23
2018-06-14T05:12:39.262Z,1019.26
2018-06-14T05:13:39.295Z,1019.24
2018-06-14T05:14:39.266Z,1019.24
2018-06-14T05:15:39.271Z,1019.29
2018-06-14T05:16:39.306Z,1019.31
2018-06-14T05:17:39.262Z,1019.35
2018-06-14T05:18:39.255Z,1019.35
2018-06-14T05:19:39.397Z,1019.32
2018-06-14T05:20:39.257Z,1019.35
2018-06-14T05:21:39.379Z,1019.38
2018-06-14T05:22:39.281Z,1019.37
2018-06-14T05:23:39.313Z,1019.37
2018-06-14T05:24:39.436Z,1019.38
2018-06-14T05:25:39.245Z,1019.45
2018-06-14T05:26:39.276Z,1019.42
2018-06-14T05:27:39.401Z,1019.42
2018-06-14T05:28:39.314Z,1019.46
2018-06-14T05:29:39.371Z,1019.46
2018-06-14T05:30:39.297Z,1019.41
2018-06-14T05:31:39.265Z,1019.47
2018-06-14T05:32:39.359Z,1019.47
2018-06-14T05:33:39.268Z,1019.48
2018-06-14T05:34:39.301Z,1019.48
2018-06-14T05:35:39.302Z,1019.47
2018-06-14T05:36:39.288Z,1019.45
2018-06-14T05:37:39.321Z,1019.44
2018-06-14T05:38:39.293Z,1019.4
2018-06-14T05:39:39.389Z,1019.43
2018-06-14T05:40:39.356Z,1019.44
2018-06-14T05:41:39.287Z,1019.43
2018-06-14T05:42:39.263Z,1019.46
2018-06-14T05:43:39.284Z,1019.44
2018-06-14T05:44:39.434Z,1019.46
2018-06-14T05:45:39.286Z,1019.44
2018-06-14T05:46:39.543Z,1019.43
2018-06-14T05:47:39.418Z,1019.43
2018-06-14T05:48:39.259Z,1019.44
2018-06-14T05:49:39.254Z,1019.41
2018-06-14T05:50:39.300Z,1019.41
2018-06-14T05:51:39.266Z,1019.4
2018-06-14T05:52:39.247Z,1019.38
2018-06-14T05:53:39.282Z,1019.41
2018-06-14T05:54:39.275Z,1019.42
2018-06-14T05:55:39.274Z,1019.41
2018-06-14T05:56:39.273Z,1019.43
2018-06-14T05:57:39.355Z,1019.45
2018-06-14T05:58:39.270Z,1019.46
2018-06-14T05:59:39.276Z,1019.43
2018-06-14T06:00:39.271Z,1019.39
2018-06-14T06:01:39.284Z,1019.38
2018-06-14T06:02:39.271Z,1019.34
2018-06-14T06:03:39.262Z,1019.34
2018-06-14T06:04:39.267Z,1019.33
2018-06-14T06:05:39.285Z,1019.31
2018-06-14T06:06:39.285Z,1019.33
2018-06-14T06:07:39.275Z,1019.31
2018-06-14T06:08:39.293Z,1019.32
2018-06-14T06:09:39.277Z,1019.34
2018-06-14T06:10:39.305Z,1019.34
2018-06-14T06:11:39.340Z,1019.32
2018-06-14T06:12:39.342Z,1019.33
2018-06-14T06:13:39.433Z,1019.35
2018-06-14T06:14:39.442Z,1019.33
2018-06-14T06:15:39.296Z,1019.33
2018-06-14T06:16:39.378Z,1019.36
2018-06-14T06:17:39.488Z,1019.35
2018-06-14T06:18:39.293Z,1019.36
2018-06-14T06:19:39.385Z,1019.33
2018-06-14T06:20:39.305Z,1019.37
2018-06-14T06:21:39.430Z,1019.31
2018-06-14T06:22:39.288Z,1019.34
2018-06-14T06:23:39.306Z,1019.3
2018-06-14T06:24:39.302Z,1019.32
2018-06-14T06:25:39.320Z,1019.32
2018-06-14T06:26:39.507Z,1019.35
2018-06-14T06:27:39.425Z,1019.34
2018-06-14T06:28:39.330Z,1019.29
2018-06-14T06:29:39.385Z,1019.32
2018-06-14T06:30:39.306Z,1019.3
2018-06-14T06:31:39.308Z,1019.29
2018-06-14T06:32:39.298Z,1019.25
2018-06-14T06:33:39.453Z,1019.29
2018-06-14T06:34:39.527Z,1019.32
2018-06-14T06:35:39.339Z,1019.3
2018-06-14T06:36:39.310Z,1019.27
2018-06-14T06:37:39.291Z,1019.3
2018-06-14T06:38:39.425Z,1019.29
2018-06-14T06:39:39.363Z,1019.31
2018-06-14T06:40:39.389Z,1019.26
2018-06-14T06:41:39.292Z,1019.25
2018-06-14T06:42:39.341Z,1019.22
2018-06-14T06:43:40.308Z,1019.21
2018-06-14T06:44:39.469Z,1019.21
2018-06-14T06:45:39.518Z,1019.2
2018-06-14T06:46:39.339Z,1019.23
2018-06-14T06:47:39.461Z,1019.22
2018-06-14T06:48:39.310Z,1019.18
2018-06-14T06:49:39.299Z,1019.2
2018-06-14T06:50:39.380Z,1019.19
2018-06-14T06:51:39.381Z,1019.18
2018-06-14T06:52:39.335Z,1019.18
2018-06-14T06:53:39.299Z,1019.2
2018-06-14T06:54:39.304Z,1019.19
2018-06-14T06:55:39.313Z,1019.17
2018-06-14T06:56:39.310Z,1019.17
2018-06-14T06:57:39.311Z,1019.21
2018-06-14T06:58:39.333Z,1019.16
2018-06-14T06:59:39.313Z,1019.19
2018-06-14T07:00:39.332Z,1019.19
2018-06-14T07:01:39.319Z,1019.21
2018-06-14T07:02:39.313Z,1019.2
2018-06-14T07:03:39.327Z,1019.2
2018-06-14T07:04:39.304Z,1019.24
2018-06-14T07:05:39.308Z,1019.21
2018-06-14T07:06:39.319Z,1019.23
2018-06-14T07:07:39.310Z,1019.21
2018-06-14T07:08:39.309Z,1019.24
2018-06-14T07:09:39.302Z,1019.21
2018-06-14T07:10:39.319Z,1019.23
2018-06-14T07:11:39.311Z,1019.25
2018-06-14T07:12:39.517Z,1019.2
2018-06-14T07:13:39.353Z,1019.19
2018-06-14T07:14:39.314Z,1019.21
2018-06-14T07:15:39.339Z,1019.24
2018-06-14T07:16:39.414Z,1019.18
2018-06-14T07:17:39.360Z,1019.21
2018-06-14T07:18:39.322Z,1019.2
2018-06-14T07:19:39.482Z,1019.21
2018-06-14T07:20:39.337Z,1019.11
2018-06-14T07:21:39.496Z,1019.11
2018-06-14T07:22:39.342Z,1019.15
2018-06-14T07:23:39.352Z,1019.13
2018-06-14T07:24:39.465Z,1019.14
2018-06-14T07:25:39.331Z,1019.17
2018-06-14T07:26:39.325Z,1019.17
2018-06-14T07:27:39.371Z,1019.2
2018-06-14T07:28:39.322Z,1019.18
2018-06-14T07:29:39.295Z,1019.15
2018-06-14T07:30:39.312Z,1019.15
2018-06-14T07:31:39.345Z,1019.13
2018-06-14T07:32:39.326Z,1019.19
2018-06-14T07:33:39.410Z,1019.17
2018-06-14T07:34:39.334Z,1019.13
2018-06-14T07:35:39.324Z,1019.18
2018-06-14T07:36:39.336Z,1019.17
2018-06-14T07:37:39.337Z,1019.19
2018-06-14T07:38:39.361Z,1019.18
2018-06-14T07:39:39.404Z,1019.2
2018-06-14T07:40:39.367Z,1019.21
2018-06-14T07:41:39.387Z,1019.25
2018-06-14T07:42:39.354Z,1019.23
2018-06-14T07:43:39.424Z,1019.25
2018-06-14T07:44:39.388Z,1019.24
2018-06-14T07:45:39.394Z,1019.24
2018-06-14T07:46:39.315Z,1019.22
2018-06-14T07:47:39.328Z,1019.21
2018-06-14T07:48:39.367Z,1019.24
2018-06-14T07:49:39.385Z,1019.22
2018-06-14T07:50:39.323Z,1019.2
2018-06-14T07:51:39.335Z,1019.21
2018-06-14T07:52:39.330Z,1019.18
2018-06-14T07:53:39.349Z,1019.19
2018-06-14T07:54:39.366Z,1019.18
2018-06-14T07:55:39.482Z,1019.19
2018-06-14T07:56:39.407Z,1019.2
2018-06-14T07:57:39.393Z,1019.18
2018-06-14T07:58:39.341Z,1019.16
2018-06-14T07:59:39.353Z,1019.21
2018-06-14T08:00:39.349Z,1019.2
2018-06-14T08:01:39.333Z,1019.17
2018-06-14T08:02:39.568Z,1019.17
2018-06-14T08:03:39.416Z,1019.16
2018-06-14T08:04:39.382Z,1019.17
2018-06-14T08:05:39.358Z,1019.18
2018-06-14T08:06:39.347Z,1019.15
2018-06-14T08:07:39.423Z,1019.16
2018-06-14T08:08:39.355Z,1019.12
2018-06-14T08:09:39.345Z,1019.11
2018-06-14T08:10:39.357Z,1019.07
2018-06-14T08:11:39.357Z,1019.06
2018-06-14T08:12:39.429Z,1019.05
2018-06-14T08:13:39.373Z,1019.06
2018-06-14T08:14:39.346Z,1019.09
2018-06-14T08:15:39.352Z,1019.08
2018-06-14T08:16:39.356Z,1019.08
2018-06-14T08:17:39.333Z,1019.07
2018-06-14T08:18:39.340Z,1019.09
2018-06-14T08:19:39.346Z,1019.05
2018-06-14T08:20:39.357Z,1019.06
2018-06-14T08:21:39.403Z,1019.05
2018-06-14T08:22:39.336Z,1019.04
2018-06-14T08:23:39.354Z,1019.04
2018-06-14T08:24:39.349Z,1019.04
2018-06-14T08:25:39.371Z,1019.05
2018-06-14T08:26:39.397Z,1019.01
2018-06-14T08:27:39.377Z,1019.02
2018-06-14T08:28:39.335Z,1019.05
2018-06-14T08:29:39.392Z,1019.05
2018-06-14T08:30:39.352Z,1019.07
2018-06-14T08:31:39.331Z,1019.04
2018-06-14T08:32:39.413Z,1019.04
2018-06-14T08:33:39.341Z,1019
2018-06-14T08:34:39.420Z,1019.02
2018-06-14T08:35:39.449Z,1019.02
2018-06-14T08:36:39.393Z,1019.04
2018-06-14T08:37:39.390Z,1019.06
2018-06-14T08:38:39.484Z,1018.98
2018-06-14T08:39:39.516Z,1019
2018-06-14T08:40:39.471Z,1019
2018-06-14T08:41:39.566Z,1019.02
2018-06-14T08:42:39.526Z,1019.02
2018-06-14T08:43:39.813Z,1019.01
2018-06-14T08:44:39.520Z,1018.95
2018-06-14T08:45:39.422Z,1018.98
2018-06-14T08:46:40.312Z,1018.96
2018-06-14T08:47:39.576Z,1018.95
2018-06-14T08:48:39.727Z,1018.96
2018-06-14T08:49:39.559Z,1018.96
2018-06-14T08:50:40.403Z,1019
2018-06-14T08:51:39.369Z,1018.94
2018-06-14T08:52:39.420Z,1018.93
2018-06-14T08:53:39.406Z,1018.91
2018-06-14T08:54:39.489Z,1018.95
2018-06-14T08:55:39.499Z,1018.92
2018-06-14T08:56:39.578Z,1018.93
2018-06-14T08:57:39.392Z,1018.98
2018-06-14T08:58:39.381Z,1018.92
2018-06-14T08:59:39.392Z,1018.92
2018-06-14T09:00:39.529Z,1018.92
2018-06-14T09:01:39.392Z,1018.91
2018-06-14T09:02:39.729Z,1018.88
2018-06-14T09:03:39.377Z,1018.87
2018-06-14T09:04:39.393Z,1018.89
2018-06-14T09:05:39.535Z,1018.92
2018-06-14T09:06:39.433Z,1018.92
2018-06-14T09:07:39.378Z,1018.9
2018-06-14T09:08:39.407Z,1018.88
2018-06-14T09:09:39.441Z,1018.87
2018-06-14T09:10:39.476Z,1018.89
2018-06-14T09:11:39.768Z,1018.85
2018-06-14T09:12:39.592Z,1018.85
2018-06-14T09:13:39.470Z,1018.82
2018-06-14T09:14:39.491Z,1018.84
2018-06-14T09:15:39.607Z,1018.89
2018-06-14T09:16:39.729Z,1018.87
2018-06-14T09:17:39.405Z,1018.88
2018-06-14T09:18:39.512Z,1018.91
2018-06-14T09:19:39.406Z,1018.92
2018-06-14T09:20:39.643Z,1018.93
2018-06-14T09:21:39.420Z,1018.91
2018-06-14T09:22:39.547Z,1018.87
2018-06-14T09:23:39.398Z,1018.9
2018-06-14T09:24:40.484Z,1018.87
2018-06-14T09:25:39.456Z,1018.83
2018-06-14T09:26:39.615Z,1018.86
2018-06-14T09:27:39.959Z,1018.87
2018-06-14T09:28:39.553Z,1018.86
2018-06-14T09:29:39.483Z,1018.85
2018-06-14T09:30:39.493Z,1018.84
2018-06-14T09:31:39.498Z,1018.77
2018-06-14T09:32:39.625Z,1018.81
2018-06-14T09:33:39.453Z,1018.79
2018-06-14T09:34:39.530Z,1018.75
2018-06-14T09:35:39.423Z,1018.75
2018-06-14T09:36:39.529Z,1018.8
2018-06-14T09:37:39.401Z,1018.79
2018-06-14T09:38:39.398Z,1018.79
2018-06-14T09:39:39.404Z,1018.81
2018-06-14T09:40:42.839Z,1018.8
2018-06-14T09:41:40.175Z,1018.75
2018-06-14T09:42:39.414Z,1018.74
2018-06-14T09:43:39.431Z,1018.73
2018-06-14T09:44:39.406Z,1018.72
2018-06-14T09:45:39.465Z,1018.75
2018-06-14T09:46:39.613Z,1018.71
2018-06-14T09:47:39.437Z,1018.72
2018-06-14T09:48:39.509Z,1018.73
2018-06-14T09:49:39.438Z,1018.72
2018-06-14T09:50:40.457Z,1018.69
2018-06-14T09:51:39.399Z,1018.75
2018-06-14T09:52:39.423Z,1018.73
2018-06-14T09:53:39.410Z,1018.76
2018-06-14T09:54:39.414Z,1018.76
2018-06-14T09:55:39.567Z,1018.79
2018-06-14T09:56:39.471Z,1018.76
2018-06-14T09:57:39.448Z,1018.78
2018-06-14T09:58:39.450Z,1018.76
2018-06-14T09:59:39.406Z,1018.82
2018-06-14T10:00:39.604Z,1018.78
2018-06-14T10:01:39.434Z,1018.81
2018-06-14T10:02:39.431Z,1018.81
2018-06-14T10:03:39.439Z,1018.8
2018-06-14T10:04:39.417Z,1018.83
2018-06-14T10:05:41.582Z,1018.79
2018-06-14T10:06:39.431Z,1018.84
2018-06-14T10:07:39.477Z,1018.8
2018-06-14T10:08:39.408Z,1018.8
2018-06-14T10:09:39.451Z,1018.79
2018-06-14T10:10:39.572Z,1018.8
2018-06-14T10:11:39.417Z,1018.8
2018-06-14T10:12:39.463Z,1018.76
2018-06-14T10:13:39.444Z,1018.77
2018-06-14T10:14:39.439Z,1018.76
2018-06-14T10:15:39.703Z,1018.83
2018-06-14T10:16:39.435Z,1018.83
2018-06-14T10:17:39.480Z,1018.82
2018-06-14T10:18:39.530Z,1018.81
2018-06-14T10:19:39.416Z,1018.84
2018-06-14T10:20:39.420Z,1018.79
2018-06-14T10:21:39.548Z,1018.85
2018-06-14T10:22:39.467Z,1018.87
2018-06-14T10:23:39.468Z,1018.85
2018-06-14T10:24:39.403Z,1018.81
2018-06-14T10:25:39.567Z,1018.79
2018-06-14T10:26:39.431Z,1018.8
2018-06-14T10:27:39.424Z,1018.82
2018-06-14T10:28:39.406Z,1018.82
2018-06-14T10:29:39.547Z,1018.8
2018-06-14T10:30:39.913Z,1018.77
2018-06-14T10:31:39.606Z,1018.81
2018-06-14T10:32:39.460Z,1018.76
2018-06-14T10:33:39.466Z,1018.74
2018-06-14T10:34:39.567Z,1018.76
2018-06-14T10:35:39.530Z,1018.72
2018-06-14T10:36:39.445Z,1018.72
2018-06-14T10:37:39.441Z,1018.74
2018-06-14T10:38:39.452Z,1018.8
2018-06-14T10:39:39.477Z,1018.77
2018-06-14T10:40:39.560Z,1018.73
2018-06-14T10:41:39.431Z,1018.7
2018-06-14T10:42:39.467Z,1018.7
2018-06-14T10:43:39.421Z,1018.71
2018-06-14T10:44:39.440Z,1018.72
2018-06-14T10:45:39.634Z,1018.68
2018-06-14T10:46:39.632Z,1018.69
2018-06-14T10:47:39.428Z,1018.65
2018-06-14T10:48:39.835Z,1018.61
2018-06-14T10:49:39.437Z,1018.64
2018-06-14T10:50:39.435Z,1018.62
2018-06-14T10:51:39.647Z,1018.61
2018-06-14T10:52:39.459Z,1018.56
2018-06-14T10:53:39.551Z,1018.6
2018-06-14T10:54:39.425Z,1018.56
2018-06-14T10:55:39.570Z,1018.54
2018-06-14T10:56:39.584Z,1018.57
2018-06-14T10:57:39.644Z,1018.57
2018-06-14T10:58:39.629Z,1018.59
2018-06-14T10:59:39.454Z,1018.56
2018-06-14T11:00:39.606Z,1018.56
2018-06-14T11:01:39.624Z,1018.59
2018-06-14T11:02:39.461Z,1018.59
2018-06-14T11:03:39.465Z,1018.6
2018-06-14T11:04:39.565Z,1018.61
2018-06-14T11:05:39.536Z,1018.56
2018-06-14T11:06:39.474Z,1018.57
2018-06-14T11:07:39.471Z,1018.54
2018-06-14T11:08:39.508Z,1018.56
2018-06-14T11:09:39.468Z,1018.59
2018-06-14T11:10:39.677Z,1018.57
2018-06-14T11:11:39.443Z,1018.62
2018-06-14T11:12:39.463Z,1018.66
2018-06-14T11:13:39.442Z,1018.64
2018-06-14T11:14:39.432Z,1018.63
2018-06-14T11:15:39.599Z,1018.68
2018-06-14T11:16:39.589Z,1018.65
2018-06-14T11:17:39.787Z,1018.66
2018-06-14T11:18:39.457Z,1018.66
2018-06-14T11:19:39.464Z,1018.68
2018-06-14T11:20:39.636Z,1018.66
2018-06-14T11:21:39.455Z,1018.67
2018-06-14T11:22:39.502Z,1018.66
2018-06-14T11:23:39.627Z,1018.7
2018-06-14T11:24:39.471Z,1018.69
2018-06-14T11:25:39.542Z,1018.66
2018-06-14T11:26:39.494Z,1018.66
2018-06-14T11:27:39.679Z,1018.65
2018-06-14T11:28:39.621Z,1018.67
2018-06-14T11:29:39.519Z,1018.63
2018-06-14T11:30:39.595Z,1018.62
2018-06-14T11:31:39.502Z,1018.62
2018-06-14T11:32:39.452Z,1018.67
2018-06-14T11:33:39.492Z,1018.65
2018-06-14T11:34:39.495Z,1018.64
2018-06-14T11:35:39.629Z,1018.67
2018-06-14T11:36:39.462Z,1018.7
2018-06-14T11:37:39.460Z,1018.7
2018-06-14T11:38:39.487Z,1018.66
2018-06-14T11:39:39.618Z,1018.67
2018-06-14T11:40:39.662Z,1018.67
2018-06-14T11:41:39.549Z,1018.64
2018-06-14T11:42:39.487Z,1018.64
2018-06-14T11:43:39.549Z,1018.63
2018-06-14T11:44:39.690Z,1018.62
2018-06-14T11:45:39.477Z,1018.64
2018-06-14T11:46:39.487Z,1018.58
2018-06-14T11:47:39.518Z,1018.59
2018-06-14T11:48:39.472Z,1018.56
2018-06-14T11:49:39.456Z,1018.54
2018-06-14T11:50:39.639Z,1018.53
2018-06-14T11:51:39.524Z,1018.55
2018-06-14T11:52:39.481Z,1018.53
2018-06-14T11:53:39.473Z,1018.54
2018-06-14T11:54:39.498Z,1018.53
2018-06-14T11:55:39.484Z,1018.5
2018-06-14T11:56:39.495Z,1018.52
2018-06-14T11:57:39.548Z,1018.5
2018-06-14T11:58:39.488Z,1018.54
2018-06-14T11:59:39.490Z,1018.49
2018-06-14T12:00:39.611Z,1018.48
2018-06-14T12:01:39.560Z,1018.48
2018-06-14T12:02:39.482Z,1018.44
2018-06-14T12:03:39.471Z,1018.46
2018-06-14T12:04:39.515Z,1018.49
2018-06-14T12:05:39.632Z,1018.49
2018-06-14T12:06:39.515Z,1018.44
2018-06-14T12:07:39.514Z,1018.47
2018-06-14T12:08:39.484Z,1018.47